Meteorología y climatología de Navarra
Datos de la estación - Meteo Navarra

Estación de Urbasa GN

Altitud 886 m.


Datos desde el 16/09/2020 hasta el 17/09/2020 en horario solar
Los datos son PROVISIONALES

Anterior Página 1 de 1 Siguiente Descargar: Formato para Excel 2000 o superior   Formato csv   Formato para OpenOffice Calc
Fecha Temperatura Humedad relativa Radiación global Insolación Precipitación Vel. viento 10 m Vel. viento 10 m Dir. viento 10 m
ºC % W/m² s l/m² m/s km/h º
16/09/2020 0:00 11.5 96 0.0 0 0.0 0.1 0.2 46
16/09/2020 0:10 11.3 96 0.0 0 0.0 0.0 0.0 0
16/09/2020 0:20 11.1 96 0.0 0 0.0 0.0 0.0 0
16/09/2020 0:30 10.8 96 0.0 0 0.0 0.0 0.0 0
16/09/2020 0:40 10.8 96 0.0 0 0.0 0.0 0.0 0
16/09/2020 0:50 10.6 97 0.0 0 0.0 0.0 0.0 0
16/09/2020 1:00 10.6 96 0.0 0 0.0 0.0 0.0 0
16/09/2020 1:10 10.5 97 0.0 0 0.0 0.0 0.0 34
16/09/2020 1:20 10.3 97 0.0 0 0.0 0.3 1.0 268
16/09/2020 1:30 10.2 97 0.0 0 0.0 0.2 0.8 260
16/09/2020 1:40 10.0 97 0.0 0 0.0 0.0 0.0 0
16/09/2020 1:50 10.0 97 0.0 0 0.0 0.0 0.0 0
16/09/2020 2:00 9.8 97 0.0 0 0.0 0.0 0.0 0
16/09/2020 2:10 9.8 97 0.0 0 0.0 0.0 0.0 0
16/09/2020 2:20 9.7 97 0.0 0 0.0 0.0 0.0 0
16/09/2020 2:30 9.7 97 0.0 0 0.0 0.0 0.0 0
16/09/2020 2:40 9.6 97 0.0 0 0.0 0.0 0.0 68
16/09/2020 2:50 9.5 97 0.0 0 0.0 0.0 0.0 21
16/09/2020 3:00 9.4 97 0.0 0 0.0 0.0 0.0 21
16/09/2020 3:10 9.4 97 0.0 0 0.0 0.0 0.0 21
16/09/2020 3:20 9.2 97 0.0 0 0.0 0.0 0.0 21
16/09/2020 3:30 9.2 97 0.0 0 0.0 0.0 0.0 21
16/09/2020 3:40 9.1 97 0.0 0 0.0 0.0 0.0 21
16/09/2020 3:50 9.1 97 0.0 0 0.0 0.0 0.0 21
16/09/2020 4:00 9.0 97 0.0 0 0.0 0.0 0.0 21
16/09/2020 4:10 9.0 97 0.0 0 0.0 0.0 0.0 21
16/09/2020 4:20 9.0 97 0.0 0 0.0 0.0 0.0 21
16/09/2020 4:30 8.8 97 0.0 0 0.0 0.0 0.0 21
16/09/2020 4:40 8.7 97 0.0 0 0.0 0.0 0.0 21
16/09/2020 4:50 8.8 97 0.0 0 0.0 0.0 0.0 21
16/09/2020 5:00 8.7 97 0.0 0 0.0 - - - - - -
16/09/2020 5:10 8.7 97 0.0 0 0.0 0.0 0.0 21
16/09/2020 5:20 8.6 97 0.0 0 0.0 0.0 0.0 336
16/09/2020 5:30 8.5 97 0.0 0 0.0 0.0 0.0 336
16/09/2020 5:40 8.6 97 0.0 0 0.0 0.0 0.0 336
16/09/2020 5:50 8.6 98 0.0 0 0.0 0.0 0.0 336
16/09/2020 6:00 8.3 97 5.0 0 0.0 0.0 0.0 336
16/09/2020 6:10 8.6 98 28.3 246 0.0 0.0 0.0 336
16/09/2020 6:20 8.7 98 45.2 600 0.0 0.0 0.0 336
16/09/2020 6:30 9.2 98 78.2 600 0.0 0.0 0.0 48
16/09/2020 6:40 9.8 98 95.5 600 0.0 0.0 0.0 48
16/09/2020 6:50 10.2 98 113.0 600 0.0 0.0 0.0 48
16/09/2020 7:00 10.8 98 125.0 600 0.0 0.0 0.0 71
16/09/2020 7:10 11.3 98 125.1 600 0.0 0.0 0.0 71
16/09/2020 7:20 11.9 97 138.6 342 0.0 0.0 0.0 45
16/09/2020 7:30 12.3 97 153.9 252 0.0 0.0 0.0 188
16/09/2020 7:40 13.3 95 209.2 600 0.0 0.0 0.0 161
16/09/2020 7:50 14.7 89 279.6 600 0.0 0.0 0.1 92
16/09/2020 8:00 16.1 84 245.6 524 0.0 0.1 0.3 122
16/09/2020 8:10 17.1 84 338.6 600 0.0 0.1 0.3 79
16/09/2020 8:20 19.2 75 319.6 600 0.0 0.4 1.4 94
16/09/2020 8:30 19.9 70 375.1 600 0.0 0.9 3.1 111
16/09/2020 8:40 20.6 65 445.8 600 0.0 1.3 4.5 137
16/09/2020 8:50 21.1 61 471.7 600 0.0 2.0 7.3 152
16/09/2020 9:00 21.4 59 497.0 600 0.0 2.4 8.6 164
16/09/2020 9:10 21.9 57 523.5 600 0.0 2.4 8.8 158
16/09/2020 9:20 22.2 57 551.1 600 0.0 2.5 9.1 159
16/09/2020 9:30 22.5 55 578.1 600 0.0 2.1 7.5 146
16/09/2020 9:40 23.3 52 604.5 600 0.0 2.4 8.6 145
16/09/2020 9:50 23.7 51 627.6 600 0.0 2.0 7.1 139
16/09/2020 10:00 24.0 49 648.9 600 0.0 2.1 7.4 152
16/09/2020 10:10 23.9 49 668.2 600 0.0 2.2 8.0 143
16/09/2020 10:20 23.8 48 687.1 600 0.0 2.1 7.6 174
16/09/2020 10:30 24.6 46 703.6 600 0.0 1.9 6.7 168
16/09/2020 10:40 24.6 45 717.4 600 0.0 2.4 8.6 145
16/09/2020 10:50 25.1 43 733.0 600 0.0 1.6 5.6 185
16/09/2020 11:00 25.6 43 741.4 600 0.0 2.1 7.5 164
16/09/2020 11:10 25.5 43 757.2 600 0.0 2.1 7.5 139
16/09/2020 11:20 25.6 43 755.2 600 0.0 1.7 6.0 122
16/09/2020 11:30 25.9 43 759.1 600 0.0 2.2 7.9 152
16/09/2020 11:40 26.3 42 780.4 600 0.0 2.0 7.1 125
16/09/2020 11:50 26.5 40 783.7 600 0.0 1.8 6.3 179
16/09/2020 12:00 26.6 37 807.0 600 0.0 1.7 6.2 149
16/09/2020 12:10 26.4 34 807.0 600 0.0 0.8 2.8 239
16/09/2020 12:20 26.7 34 811.0 600 0.0 2.1 7.6 180
16/09/2020 12:30 26.7 34 798.2 600 0.0 1.6 5.6 229
16/09/2020 12:40 27.1 34 763.5 600 0.0 1.4 5.0 215
16/09/2020 12:50 27.3 33 773.0 600 0.0 1.9 6.8 153
16/09/2020 13:00 27.4 28 771.6 600 0.0 1.5 5.4 88
16/09/2020 13:10 27.4 30 685.3 550 0.0 2.0 7.2 135
16/09/2020 13:20 26.5 31 318.4 136 0.0 1.2 4.5 283
16/09/2020 13:30 26.6 33 540.4 390 0.0 1.6 5.9 262
16/09/2020 13:40 27.2 32 627.8 562 0.0 1.0 3.5 235
16/09/2020 13:50 27.7 30 715.4 600 0.0 1.2 4.2 173
16/09/2020 14:00 27.2 30 411.5 250 0.0 1.3 4.6 178
16/09/2020 14:10 27.0 30 402.0 284 0.0 1.0 3.7 274
16/09/2020 14:20 27.4 30 589.7 560 0.0 0.7 2.5 272
16/09/2020 14:30 27.4 33 673.0 600 0.0 1.4 5.1 3
16/09/2020 14:40 27.7 33 650.5 600 0.0 1.2 4.3 20
16/09/2020 14:50 27.8 32 492.7 500 0.0 2.2 8.0 62
16/09/2020 15:00 26.8 33 213.0 28 0.0 2.1 7.4 68
16/09/2020 15:10 26.7 35 472.0 600 0.0 2.1 7.5 74
16/09/2020 15:20 26.9 36 338.8 426 0.0 1.1 4.0 35
16/09/2020 15:30 26.1 43 234.8 36 0.0 1.7 6.1 322
16/09/2020 15:40 25.7 44 277.3 536 0.0 1.6 5.7 350
16/09/2020 15:50 25.6 45 317.1 600 0.0 1.5 5.4 344
16/09/2020 16:00 25.6 46 316.8 600 0.0 1.7 6.0 325
16/09/2020 16:10 25.2 49 257.7 600 0.0 1.8 6.6 322
16/09/2020 16:20 24.7 53 245.5 600 0.0 1.8 6.6 308
16/09/2020 16:30 24.4 54 249.1 600 0.0 2.3 8.4 305
16/09/2020 16:40 24.3 57 203.7 600 0.0 1.9 6.8 312
16/09/2020 16:50 24.1 58 202.4 600 0.0 2.1 7.4 307
16/09/2020 17:00 24.1 59 179.9 600 0.0 2.0 7.1 305
16/09/2020 17:10 24.0 60 136.6 600 0.0 1.6 5.8 305
16/09/2020 17:20 23.6 62 81.9 196 0.0 1.0 3.6 311
16/09/2020 17:30 23.2 64 50.5 0 0.0 0.4 1.5 13
16/09/2020 17:40 22.7 66 37.9 0 0.0 0.4 1.3 28
16/09/2020 17:50 22.2 68 30.4 0 0.0 0.3 0.9 353
16/09/2020 18:00 21.7 70 14.3 0 0.0 0.5 1.8 311
16/09/2020 18:10 21.3 72 0.0 0 0.0 0.6 2.3 291
16/09/2020 18:20 20.2 76 0.0 0 0.0 0.1 0.2 231
16/09/2020 18:30 19.9 78 0.0 0 0.0 0.3 1.2 308
16/09/2020 18:40 19.4 79 0.0 0 0.0 0.3 0.9 305
16/09/2020 18:50 19.3 78 0.0 0 0.0 0.9 3.2 260
16/09/2020 19:00 18.9 81 0.0 0 0.0 0.6 2.3 250
16/09/2020 19:10 18.5 82 0.0 0 0.0 0.7 2.6 253
16/09/2020 19:20 18.1 84 0.0 0 0.0 0.8 2.7 267
16/09/2020 19:30 17.6 85 0.0 0 0.0 0.4 1.4 239
16/09/2020 19:40 17.2 86 0.0 0 0.0 0.4 1.4 267
16/09/2020 19:50 16.7 88 0.0 0 0.0 0.4 1.4 259
16/09/2020 20:00 16.4 90 0.0 0 0.0 0.1 0.2 277
16/09/2020 20:10 16.1 91 0.0 0 0.0 0.1 0.3 271
16/09/2020 20:20 15.9 92 0.0 0 0.0 0.2 0.8 230
16/09/2020 20:30 15.9 92 0.0 0 0.0 0.2 0.6 317
16/09/2020 20:40 15.6 93 0.0 0 0.0 0.0 0.0 49
16/09/2020 20:50 15.4 93 0.0 0 0.0 0.0 0.1 176
16/09/2020 21:00 15.4 94 0.0 0 0.0 0.0 0.0 0
16/09/2020 21:10 15.4 94 0.0 0 0.0 0.1 0.3 5
16/09/2020 21:20 15.2 94 0.0 0 0.0 0.0 0.0 0
16/09/2020 21:30 14.9 94 0.0 0 0.0 0.0 0.0 0
16/09/2020 21:40 14.8 95 0.0 0 0.0 0.0 0.0 0
16/09/2020 21:50 14.6 95 0.0 0 0.0 0.0 0.0 0
16/09/2020 22:00 14.2 95 0.0 0 0.0 0.0 0.1 240
16/09/2020 22:10 14.2 95 0.0 0 0.0 0.0 0.0 0
16/09/2020 22:20 13.8 95 0.0 0 0.0 0.0 0.0 0
16/09/2020 22:30 13.6 96 0.0 0 0.0 0.1 0.4 49
16/09/2020 22:40 13.3 96 0.0 0 0.0 0.0 0.0 163
16/09/2020 22:50 13.2 96 0.0 0 0.0 0.0 0.0 0
16/09/2020 23:00 13.1 96 0.0 0 0.0 0.0 0.0 0
16/09/2020 23:10 13.0 96 0.0 0 0.0 0.0 0.1 290
16/09/2020 23:20 12.4 96 0.0 0 0.0 0.0 0.0 0
16/09/2020 23:30 12.4 96 0.0 0 0.0 0.0 0.0 0
16/09/2020 23:40 12.3 96 0.0 0 0.0 0.0 0.0 0
16/09/2020 23:50 12.2 96 0.0 0 0.0 0.0 0.0 0
Anterior Página 1 de 1 Siguiente

NOTA: Tipo de datos según el color:
   - Valores diarios o 10 minutos correctos
   - Valores diarios calculados a partir de un número de datos 10 minutos menor que 144 y mayor que 120, o de un número de datos semihorarios menor que 48 y mayor que 40 (caso de las estaciones de INTIA y del Ministerio)
   - Valores diez minutos estimados


Contacto        Enlaces        Aviso legal